sensor_id;sensor_type;location;lat;lon;timestamp;pressure;altitude;pressure_sealevel;temperature;humidity
70833;BME280;58452;59.418;17.962;2022-12-13T00:00:07;100199.47;;;-3.88;76.00
70833;BME280;58452;59.418;17.962;2022-12-13T00:02:34;100190.19;;;-3.86;76.08
70833;BME280;58452;59.418;17.962;2022-12-13T00:05:00;100195.78;;;-3.80;76.06
70833;BME280;58452;59.418;17.962;2022-12-13T00:07:25;100193.31;;;-3.81;75.92
70833;BME280;58452;59.418;17.962;2022-12-13T00:09:50;100195.09;;;-3.83;75.50
70833;BME280;58452;59.418;17.962;2022-12-13T00:12:16;100187.25;;;-3.77;75.19
70833;BME280;58452;59.418;17.962;2022-12-13T00:14:41;100188.66;;;-3.90;75.52
70833;BME280;58452;59.418;17.962;2022-12-13T00:17:06;100187.78;;;-4.10;76.37
70833;BME280;58452;59.418;17.962;2022-12-13T00:19:32;100184.25;;;-4.06;75.98
70833;BME280;58452;59.418;17.962;2022-12-13T00:21:57;100175.69;;;-4.02;76.11
70833;BME280;58452;59.418;17.962;2022-12-13T00:24:22;100175.50;;;-3.97;75.37
70833;BME280;58452;59.418;17.962;2022-12-13T00:26:48;100170.22;;;-4.11;75.83
70833;BME280;58452;59.418;17.962;2022-12-13T00:29:13;100174.13;;;-4.04;76.23
70833;BME280;58452;59.418;17.962;2022-12-13T00:31:39;100166.56;;;-4.04;75.97
70833;BME280;58452;59.418;17.962;2022-12-13T00:34:04;100165.69;;;-4.23;76.50
70833;BME280;58452;59.418;17.962;2022-12-13T00:36:29;100162.06;;;-4.18;76.02
70833;BME280;58452;59.418;17.962;2022-12-13T00:38:55;100165.38;;;-4.16;76.66
70833;BME280;58452;59.418;17.962;2022-12-13T00:41:35;100157.19;;;-4.01;76.84
70833;BME280;58452;59.418;17.962;2022-12-13T00:44:02;100158.31;;;-4.08;77.55
70833;BME280;58452;59.418;17.962;2022-12-13T00:46:28;100159.94;;;-4.07;77.93
70833;BME280;58452;59.418;17.962;2022-12-13T00:48:56;100155.66;;;-4.05;78.10
70833;BME280;58452;59.418;17.962;2022-12-13T00:51:23;100144.56;;;-4.21;79.32
70833;BME280;58452;59.418;17.962;2022-12-13T00:53:49;100157.78;;;-4.36;80.38
70833;BME280;58452;59.418;17.962;2022-12-13T00:56:21;100148.63;;;-4.37;81.01
70833;BME280;58452;59.418;17.962;2022-12-13T00:58:48;100150.50;;;-4.42;81.29
70833;BME280;58452;59.418;17.962;2022-12-13T01:01:16;100149.16;;;-4.51;81.67
70833;BME280;58452;59.418;17.962;2022-12-13T01:03:43;100146.19;;;-4.60;81.98
70833;BME280;58452;59.418;17.962;2022-12-13T01:06:14;100146.06;;;-4.57;82.30
70833;BME280;58452;59.418;17.962;2022-12-13T01:08:41;100154.63;;;-4.61;82.47
70833;BME280;58452;59.418;17.962;2022-12-13T01:11:07;100151.69;;;-4.72;82.70
70833;BME280;58452;59.418;17.962;2022-12-13T01:13:33;100146.78;;;-4.75;83.52
70833;BME280;58452;59.418;17.962;2022-12-13T01:16:01;100138.41;;;-4.76;83.04
70833;BME280;58452;59.418;17.962;2022-12-13T01:18:27;100135.09;;;-4.76;83.57
70833;BME280;58452;59.418;17.962;2022-12-13T01:23:26;100126.53;;;-4.72;83.55
70833;BME280;58452;59.418;17.962;2022-12-13T01:25:52;100129.31;;;-4.78;83.70
70833;BME280;58452;59.418;17.962;2022-12-13T01:28:18;100121.31;;;-4.88;84.32
70833;BME280;58452;59.418;17.962;2022-12-13T01:30:43;100128.31;;;-4.74;83.92
70833;BME280;58452;59.418;17.962;2022-12-13T01:33:09;100128.09;;;-4.90;83.96
70833;BME280;58452;59.418;17.962;2022-12-13T01:35:34;100128.25;;;-4.95;85.05
70833;BME280;58452;59.418;17.962;2022-12-13T01:38:00;100121.06;;;-4.82;85.00
70833;BME280;58452;59.418;17.962;2022-12-13T01:40:25;100119.06;;;-4.74;84.58
70833;BME280;58452;59.418;17.962;2022-12-13T01:42:50;100120.81;;;-4.98;84.65
70833;BME280;58452;59.418;17.962;2022-12-13T01:47:48;100109.31;;;-4.81;84.75
70833;BME280;58452;59.418;17.962;2022-12-13T01:50:18;100110.03;;;-4.79;84.09
70833;BME280;58452;59.418;17.962;2022-12-13T01:52:46;100109.91;;;-4.76;83.99
70833;BME280;58452;59.418;17.962;2022-12-13T01:55:14;100101.88;;;-4.84;84.22
70833;BME280;58452;59.418;17.962;2022-12-13T01:57:41;100106.97;;;-4.66;84.29
70833;BME280;58452;59.418;17.962;2022-12-13T02:00:09;100092.72;;;-4.87;84.22
70833;BME280;58452;59.418;17.962;2022-12-13T02:02:35;100098.25;;;-4.99;85.08
70833;BME280;58452;59.418;17.962;2022-12-13T02:05:14;100101.56;;;-4.99;84.92
70833;BME280;58452;59.418;17.962;2022-12-13T02:07:43;100097.78;;;-5.09;85.42
70833;BME280;58452;59.418;17.962;2022-12-13T02:10:09;100081.53;;;-5.00;85.35
70833;BME280;58452;59.418;17.962;2022-12-13T02:12:36;100092.16;;;-4.94;84.71
70833;BME280;58452;59.418;17.962;2022-12-13T02:15:09;100093.81;;;-4.93;84.81
70833;BME280;58452;59.418;17.962;2022-12-13T02:23:06;100078.59;;;-5.33;85.23
70833;BME280;58452;59.418;17.962;2022-12-13T02:31:13;100078.72;;;-5.58;85.80
70833;BME280;58452;59.418;17.962;2022-12-13T02:36:18;100068.28;;;-5.70;85.16
70833;BME280;58452;59.418;17.962;2022-12-13T02:38:55;100075.94;;;-5.73;84.62
70833;BME280;58452;59.418;17.962;2022-12-13T02:41:40;100067.94;;;-5.61;84.93
70833;BME280;58452;59.418;17.962;2022-12-13T02:46:52;100060.63;;;-5.67;84.23
70833;BME280;58452;59.418;17.962;2022-12-13T02:49:21;100057.75;;;-5.80;83.93
70833;BME280;58452;59.418;17.962;2022-12-13T02:51:49;100055.88;;;-5.75;84.44
70833;BME280;58452;59.418;17.962;2022-12-13T02:54:15;100066.47;;;-5.88;84.61
70833;BME280;58452;59.418;17.962;2022-12-13T02:56:41;100051.63;;;-5.95;84.19
70833;BME280;58452;59.418;17.962;2022-12-13T02:59:10;100053.63;;;-6.04;84.41
70833;BME280;58452;59.418;17.962;2022-12-13T03:04:42;100051.38;;;-6.12;83.78
70833;BME280;58452;59.418;17.962;2022-12-13T03:10:31;100062.19;;;-6.33;84.40
70833;BME280;58452;59.418;17.962;2022-12-13T03:13:08;100032.53;;;-6.23;84.29
70833;BME280;58452;59.418;17.962;2022-12-13T03:16:04;100041.09;;;-6.27;84.12
70833;BME280;58452;59.418;17.962;2022-12-13T03:18:32;100040.47;;;-6.34;83.92
70833;BME280;58452;59.418;17.962;2022-12-13T03:21:02;100035.44;;;-6.34;84.60
70833;BME280;58452;59.418;17.962;2022-12-13T03:23:28;100028.88;;;-6.38;84.99
70833;BME280;58452;59.418;17.962;2022-12-13T03:25:56;100041.38;;;-6.36;85.35
70833;BME280;58452;59.418;17.962;2022-12-13T03:28:23;100018.25;;;-6.45;85.37
70833;BME280;58452;59.418;17.962;2022-12-13T03:30:49;100019.91;;;-6.45;85.59
70833;BME280;58452;59.418;17.962;2022-12-13T03:33:14;100021.28;;;-6.35;84.81
70833;BME280;58452;59.418;17.962;2022-12-13T03:35:41;100025.19;;;-6.28;85.10
70833;BME280;58452;59.418;17.962;2022-12-13T03:38:08;100025.72;;;-6.43;84.34
70833;BME280;58452;59.418;17.962;2022-12-13T03:40:34;100027.69;;;-6.51;84.45
70833;BME280;58452;59.418;17.962;2022-12-13T03:43:00;100020.16;;;-6.51;84.71
70833;BME280;58452;59.418;17.962;2022-12-13T03:45:26;100022.19;;;-6.62;85.07
70833;BME280;58452;59.418;17.962;2022-12-13T03:47:52;100019.47;;;-6.56;85.29
70833;BME280;58452;59.418;17.962;2022-12-13T03:50:17;100021.63;;;-6.70;84.85
70833;BME280;58452;59.418;17.962;2022-12-13T03:52:42;100013.47;;;-6.75;85.03
70833;BME280;58452;59.418;17.962;2022-12-13T03:55:08;100020.91;;;-6.74;84.70
70833;BME280;58452;59.418;17.962;2022-12-13T03:57:34;100003.56;;;-6.80;84.44
70833;BME280;58452;59.418;17.962;2022-12-13T03:59:59;99998.28;;;-6.72;84.55
70833;BME280;58452;59.418;17.962;2022-12-13T04:02:25;100009.31;;;-6.76;84.59
70833;BME280;58452;59.418;17.962;2022-12-13T04:04:50;100001.66;;;-6.73;84.43
70833;BME280;58452;59.418;17.962;2022-12-13T04:07:16;99996.97;;;-6.82;84.76
70833;BME280;58452;59.418;17.962;2022-12-13T04:09:41;99987.94;;;-6.88;84.89
70833;BME280;58452;59.418;17.962;2022-12-13T04:12:06;100001.00;;;-6.78;84.98
70833;BME280;58452;59.418;17.962;2022-12-13T04:14:50;100009.88;;;-6.68;83.90
70833;BME280;58452;59.418;17.962;2022-12-13T04:17:16;99984.25;;;-6.78;83.15
70833;BME280;58452;59.418;17.962;2022-12-13T04:19:41;99984.25;;;-6.78;83.80
70833;BME280;58452;59.418;17.962;2022-12-13T04:22:07;99972.91;;;-6.88;84.07
70833;BME280;58452;59.418;17.962;2022-12-13T04:24:32;99968.72;;;-6.87;83.84
70833;BME280;58452;59.418;17.962;2022-12-13T04:27:01;99974.34;;;-6.81;84.11
70833;BME280;58452;59.418;17.962;2022-12-13T04:29:27;99962.00;;;-6.87;83.99
70833;BME280;58452;59.418;17.962;2022-12-13T04:31:53;99968.63;;;-6.86;83.39
70833;BME280;58452;59.418;17.962;2022-12-13T04:34:18;99955.50;;;-6.93;83.84
70833;BME280;58452;59.418;17.962;2022-12-13T04:36:43;99965.34;;;-6.86;83.91
70833;BME280;58452;59.418;17.962;2022-12-13T04:39:09;99985.91;;;-7.02;84.10
70833;BME280;58452;59.418;17.962;2022-12-13T04:41:38;99963.47;;;-7.06;84.39
70833;BME280;58452;59.418;17.962;2022-12-13T04:44:06;99957.66;;;-7.07;84.46
70833;BME280;58452;59.418;17.962;2022-12-13T04:46:32;99952.53;;;-7.04;85.06
70833;BME280;58452;59.418;17.962;2022-12-13T04:48:58;99958.75;;;-7.15;84.55
70833;BME280;58452;59.418;17.962;2022-12-13T04:51:24;99953.66;;;-7.12;84.58
70833;BME280;58452;59.418;17.962;2022-12-13T04:53:49;99967.16;;;-7.16;83.75
70833;BME280;58452;59.418;17.962;2022-12-13T04:56:15;99945.44;;;-7.16;84.31
70833;BME280;58452;59.418;17.962;2022-12-13T04:58:40;99946.09;;;-7.11;84.15
70833;BME280;58452;59.418;17.962;2022-12-13T05:01:07;99947.16;;;-7.18;84.20
70833;BME280;58452;59.418;17.962;2022-12-13T05:03:33;99940.41;;;-7.16;84.35
70833;BME280;58452;59.418;17.962;2022-12-13T05:06:02;99945.13;;;-7.07;84.00
70833;BME280;58452;59.418;17.962;2022-12-13T05:08:28;99933.06;;;-7.22;84.55
70833;BME280;58452;59.418;17.962;2022-12-13T05:10:53;99939.63;;;-7.18;84.96
70833;BME280;58452;59.418;17.962;2022-12-13T05:13:19;99941.38;;;-7.20;84.34
70833;BME280;58452;59.418;17.962;2022-12-13T05:15:44;99939.84;;;-7.24;84.92
70833;BME280;58452;59.418;17.962;2022-12-13T05:18:09;99941.38;;;-7.20;84.68
70833;BME280;58452;59.418;17.962;2022-12-13T05:20:35;99932.50;;;-7.30;84.32
70833;BME280;58452;59.418;17.962;2022-12-13T05:23:00;99941.66;;;-7.29;84.18
70833;BME280;58452;59.418;17.962;2022-12-13T05:25:26;99933.69;;;-7.40;84.30
70833;BME280;58452;59.418;17.962;2022-12-13T05:27:52;99939.94;;;-7.27;84.02
70833;BME280;58452;59.418;17.962;2022-12-13T05:30:18;99926.84;;;-7.35;83.98
70833;BME280;58452;59.418;17.962;2022-12-13T05:32:44;99945.25;;;-7.36;82.87
70833;BME280;58452;59.418;17.962;2022-12-13T05:35:13;99936.47;;;-7.23;83.73
70833;BME280;58452;59.418;17.962;2022-12-13T05:37:40;99932.03;;;-7.41;83.12
70833;BME280;58452;59.418;17.962;2022-12-13T05:40:06;99926.38;;;-7.46;84.44
70833;BME280;58452;59.418;17.962;2022-12-13T05:42:32;99929.81;;;-7.49;83.72
70833;BME280;58452;59.418;17.962;2022-12-13T05:44:57;99932.03;;;-7.41;83.49
70833;BME280;58452;59.418;17.962;2022-12-13T05:47:23;99929.63;;;-7.44;83.31
70833;BME280;58452;59.418;17.962;2022-12-13T05:49:48;99927.34;;;-7.50;83.14
70833;BME280;58452;59.418;17.962;2022-12-13T05:52:21;99942.25;;;-7.47;83.42
70833;BME280;58452;59.418;17.962;2022-12-13T05:54:47;99934.09;;;-7.52;83.42
70833;BME280;58452;59.418;17.962;2022-12-13T05:57:13;99936.44;;;-7.48;83.05
70833;BME280;58452;59.418;17.962;2022-12-13T05:59:38;99933.88;;;-7.46;82.91
70833;BME280;58452;59.418;17.962;2022-12-13T06:02:04;99944.09;;;-7.52;82.24
70833;BME280;58452;59.418;17.962;2022-12-13T06:04:30;99939.16;;;-7.55;82.23
70833;BME280;58452;59.418;17.962;2022-12-13T06:06:55;99937.34;;;-7.50;81.55
70833;BME280;58452;59.418;17.962;2022-12-13T06:09:21;99929.13;;;-7.54;81.44
70833;BME280;58452;59.418;17.962;2022-12-13T06:11:47;99932.34;;;-7.50;80.81
70833;BME280;58452;59.418;17.962;2022-12-13T06:14:13;99943.06;;;-7.45;80.20
70833;BME280;58452;59.418;17.962;2022-12-13T06:16:39;99934.84;;;-7.50;80.38
70833;BME280;58452;59.418;17.962;2022-12-13T06:19:04;99928.78;;;-7.43;79.53
70833;BME280;58452;59.418;17.962;2022-12-13T06:21:31;99932.00;;;-7.39;79.85
70833;BME280;58452;59.418;17.962;2022-12-13T06:23:57;99935.91;;;-7.31;79.67
70833;BME280;58452;59.418;17.962;2022-12-13T06:26:22;99938.50;;;-7.34;79.02
70833;BME280;58452;59.418;17.962;2022-12-13T06:28:48;99938.69;;;-7.40;77.82
70833;BME280;58452;59.418;17.962;2022-12-13T06:31:13;99937.09;;;-7.43;77.95
70833;BME280;58452;59.418;17.962;2022-12-13T06:33:39;99932.91;;;-7.42;78.15
70833;BME280;58452;59.418;17.962;2022-12-13T06:36:05;99940.19;;;-7.34;77.66
70833;BME280;58452;59.418;17.962;2022-12-13T06:38:30;99934.38;;;-7.35;77.27
70833;BME280;58452;59.418;17.962;2022-12-13T06:41:15;99935.31;;;-7.39;77.34
70833;BME280;58452;59.418;17.962;2022-12-13T06:43:44;99934.38;;;-7.35;76.91
70833;BME280;58452;59.418;17.962;2022-12-13T06:46:10;99924.50;;;-7.41;76.83
70833;BME280;58452;59.418;17.962;2022-12-13T06:48:36;99928.66;;;-7.40;76.80
70833;BME280;58452;59.418;17.962;2022-12-13T06:51:05;99936.25;;;-7.42;76.91
70833;BME280;58452;59.418;17.962;2022-12-13T06:53:31;99931.03;;;-7.35;76.39
70833;BME280;58452;59.418;17.962;2022-12-13T06:56:02;99928.38;;;-7.31;76.61
70833;BME280;58452;59.418;17.962;2022-12-13T06:58:28;99925.88;;;-7.31;76.20
70833;BME280;58452;59.418;17.962;2022-12-13T07:01:11;99929.44;;;-7.38;76.69
70833;BME280;58452;59.418;17.962;2022-12-13T07:03:37;99935.22;;;-7.36;76.62
70833;BME280;58452;59.418;17.962;2022-12-13T07:06:05;99926.22;;;-7.42;76.18
70833;BME280;58452;59.418;17.962;2022-12-13T07:08:32;99930.31;;;-7.39;76.47
70833;BME280;58452;59.418;17.962;2022-12-13T07:10:58;99920.19;;;-7.36;75.83
70833;BME280;58452;59.418;17.962;2022-12-13T07:13:23;99922.56;;;-7.31;75.59
70833;BME280;58452;59.418;17.962;2022-12-13T07:15:49;99920.19;;;-7.36;75.91
70833;BME280;58452;59.418;17.962;2022-12-13T07:18:15;99919.34;;;-7.36;75.48
70833;BME280;58452;59.418;17.962;2022-12-13T07:20:41;99933.53;;;-7.35;75.33
70833;BME280;58452;59.418;17.962;2022-12-13T07:23:07;99920.06;;;-7.33;75.72
70833;BME280;58452;59.418;17.962;2022-12-13T07:25:33;99928.50;;;-7.34;75.75
70833;BME280;58452;59.418;17.962;2022-12-13T07:28:00;99917.47;;;-7.30;76.02
70833;BME280;58452;59.418;17.962;2022-12-13T07:30:26;99926.78;;;-7.33;75.42
70833;BME280;58452;59.418;17.962;2022-12-13T07:32:52;99930.31;;;-7.39;75.24
70833;BME280;58452;59.418;17.962;2022-12-13T07:35:17;99920.97;;;-7.34;75.58
70833;BME280;58452;59.418;17.962;2022-12-13T07:37:43;99926.94;;;-7.38;75.04
70833;BME280;58452;59.418;17.962;2022-12-13T07:40:09;99926.16;;;-7.40;74.89
70833;BME280;58452;59.418;17.962;2022-12-13T07:42:34;99922.75;;;-7.37;75.58
70833;BME280;58452;59.418;17.962;2022-12-13T07:45:00;99925.19;;;-7.36;75.01
70833;BME280;58452;59.418;17.962;2022-12-13T07:47:29;99920.75;;;-7.28;75.29
70833;BME280;58452;59.418;17.962;2022-12-13T07:49:55;99908.38;;;-7.32;74.99
70833;BME280;58452;59.418;17.962;2022-12-13T07:52:21;99936.03;;;-7.35;74.66
70833;BME280;58452;59.418;17.962;2022-12-13T07:54:46;99922.56;;;-7.31;74.63
70833;BME280;58452;59.418;17.962;2022-12-13T07:57:11;99933.41;;;-7.31;74.21
70833;BME280;58452;59.418;17.962;2022-12-13T07:59:37;99925.09;;;-7.33;74.64
70833;BME280;58452;59.418;17.962;2022-12-13T08:02:05;99915.38;;;-7.42;74.08
70833;BME280;58452;59.418;17.962;2022-12-13T08:04:30;99926.94;;;-7.38;74.47
70833;BME280;58452;59.418;17.962;2022-12-13T08:06:56;99920.97;;;-7.34;74.09
70833;BME280;58452;59.418;17.962;2022-12-13T08:09:21;99926.84;;;-7.35;74.02
70833;BME280;58452;59.418;17.962;2022-12-13T08:11:47;99923.38;;;-7.31;74.38
70833;BME280;58452;59.418;17.962;2022-12-13T08:14:13;99927.56;;;-7.31;73.91
70833;BME280;58452;59.418;17.962;2022-12-13T08:16:38;99924.63;;;-7.44;74.21
70833;BME280;58452;59.418;17.962;2022-12-13T08:19:04;99931.13;;;-7.38;73.93
70833;BME280;58452;59.418;17.962;2022-12-13T08:21:34;99935.53;;;-7.45;73.73
70833;BME280;58452;59.418;17.962;2022-12-13T08:24:00;99931.84;;;-7.35;74.33
70833;BME280;58452;59.418;17.962;2022-12-13T08:26:25;99938.50;;;-7.34;73.95
70833;BME280;58452;59.418;17.962;2022-12-13T08:28:51;99940.44;;;-7.42;73.90
70833;BME280;58452;59.418;17.962;2022-12-13T08:31:16;99932.81;;;-7.39;74.31
70833;BME280;58452;59.418;17.962;2022-12-13T08:33:42;99946.69;;;-7.29;73.92
70833;BME280;58452;59.418;17.962;2022-12-13T08:36:10;99933.41;;;-7.31;73.83
70833;BME280;58452;59.418;17.962;2022-12-13T08:38:36;99936.66;;;-7.29;73.44
70833;BME280;58452;59.418;17.962;2022-12-13T08:41:03;99929.69;;;-7.46;74.10
70833;BME280;58452;59.418;17.962;2022-12-13T08:43:28;99931.28;;;-7.43;73.62
70833;BME280;58452;59.418;17.962;2022-12-13T08:45:54;99932.13;;;-7.44;73.68
70833;BME280;58452;59.418;17.962;2022-12-13T08:48:19;99937.63;;;-7.33;73.89
70833;BME280;58452;59.418;17.962;2022-12-13T08:50:44;99934.28;;;-7.33;74.16
70833;BME280;58452;59.418;17.962;2022-12-13T08:53:10;99941.97;;;-7.38;73.62
70833;BME280;58452;59.418;17.962;2022-12-13T08:55:36;99941.41;;;-7.46;73.49
70833;BME280;58452;59.418;17.962;2022-12-13T08:58:04;99950.75;;;-7.51;74.08
70833;BME280;58452;59.418;17.962;2022-12-13T09:00:34;99944.03;;;-7.51;73.73
70833;BME280;58452;59.418;17.962;2022-12-13T09:03:00;99954.13;;;-7.52;73.68
70833;BME280;58452;59.418;17.962;2022-12-13T09:05:28;99960.91;;;-7.56;73.55
70833;BME280;58452;59.418;17.962;2022-12-13T09:07:55;99947.16;;;-7.70;73.97
70833;BME280;58452;59.418;17.962;2022-12-13T09:10:21;99955.84;;;-7.54;74.40
70833;BME280;58452;59.418;17.962;2022-12-13T09:12:47;99957.59;;;-7.56;74.05
70833;BME280;58452;59.418;17.962;2022-12-13T09:15:12;99947.25;;;-7.73;74.08
70833;BME280;58452;59.418;17.962;2022-12-13T09:17:38;99951.59;;;-7.78;73.80
70833;BME280;58452;59.418;17.962;2022-12-13T09:20:06;99951.41;;;-7.72;74.31
70833;BME280;58452;59.418;17.962;2022-12-13T09:22:32;99950.16;;;-7.85;74.36
70833;BME280;58452;59.418;17.962;2022-12-13T09:24:57;99951.34;;;-7.97;74.24
70833;BME280;58452;59.418;17.962;2022-12-13T09:27:23;99950.69;;;-8.04;74.72
70833;BME280;58452;59.418;17.962;2022-12-13T09:29:49;99952.88;;;-7.93;74.65
70833;BME280;58452;59.418;17.962;2022-12-13T09:32:14;99962.22;;;-8.00;74.12
70833;BME280;58452;59.418;17.962;2022-12-13T09:34:40;99962.63;;;-8.12;75.02
70833;BME280;58452;59.418;17.962;2022-12-13T09:37:05;99959.31;;;-8.14;74.45
70833;BME280;58452;59.418;17.962;2022-12-13T09:39:31;99956.16;;;-8.19;74.59
70833;BME280;58452;59.418;17.962;2022-12-13T09:41:58;99960.47;;;-8.25;74.38
70833;BME280;58452;59.418;17.962;2022-12-13T09:44:29;99953.03;;;-8.27;75.07
70833;BME280;58452;59.418;17.962;2022-12-13T09:46:58;99967.28;;;-8.29;74.28
70833;BME280;58452;59.418;17.962;2022-12-13T09:49:33;99969.78;;;-8.29;74.38
70833;BME280;58452;59.418;17.962;2022-12-13T09:52:01;99975.78;;;-8.33;74.57
70833;BME280;58452;59.418;17.962;2022-12-13T09:54:27;99973.41;;;-8.39;74.21
70833;BME280;58452;59.418;17.962;2022-12-13T09:56:54;99955.13;;;-8.41;73.68
70833;BME280;58452;59.418;17.962;2022-12-13T09:59:26;99961.94;;;-8.46;73.88
70833;BME280;58452;59.418;17.962;2022-12-13T10:01:53;99973.69;;;-8.48;74.32
70833;BME280;58452;59.418;17.962;2022-12-13T10:04:19;99968.59;;;-8.45;74.81
70833;BME280;58452;59.418;17.962;2022-12-13T10:06:44;99968.41;;;-8.39;74.27
70833;BME280;58452;59.418;17.962;2022-12-13T10:09:12;99965.16;;;-8.41;74.48
70833;BME280;58452;59.418;17.962;2022-12-13T10:11:49;99965.25;;;-8.44;74.37
70833;BME280;58452;59.418;17.962;2022-12-13T10:14:23;99978.50;;;-8.42;74.16
70833;BME280;58452;59.418;17.962;2022-12-13T10:16:51;99984.34;;;-8.42;74.38
70833;BME280;58452;59.418;17.962;2022-12-13T10:19:33;99975.91;;;-8.39;74.54
70833;BME280;58452;59.418;17.962;2022-12-13T10:22:01;99981.88;;;-8.43;73.09
70833;BME280;58452;59.418;17.962;2022-12-13T10:24:30;99988.44;;;-8.39;74.57
70833;BME280;58452;59.418;17.962;2022-12-13T10:27:14;99978.59;;;-8.45;74.24
70833;BME280;58452;59.418;17.962;2022-12-13T10:32:41;99983.50;;;-8.42;73.19
70833;BME280;58452;59.418;17.962;2022-12-13T10:35:10;99980.06;;;-8.38;73.67
70833;BME280;58452;59.418;17.962;2022-12-13T10:37:36;99982.81;;;-8.47;72.71
70833;BME280;58452;59.418;17.962;2022-12-13T10:40:02;99986.88;;;-8.43;73.64
70833;BME280;58452;59.418;17.962;2022-12-13T10:42:28;99971.75;;;-8.40;72.87
70833;BME280;58452;59.418;17.962;2022-12-13T10:45:14;99983.50;;;-8.42;73.16
70833;BME280;58452;59.418;17.962;2022-12-13T10:47:43;99975.78;;;-8.33;73.23
70833;BME280;58452;59.418;17.962;2022-12-13T10:50:28;99980.31;;;-8.47;72.94
70833;BME280;58452;59.418;17.962;2022-12-13T10:52:55;99972.78;;;-8.46;73.28
70833;BME280;58452;59.418;17.962;2022-12-13T10:57:51;99983.34;;;-8.36;72.35
70833;BME280;58452;59.418;17.962;2022-12-13T11:02:58;99977.94;;;-8.52;72.68
70833;BME280;58452;59.418;17.962;2022-12-13T11:05:30;99975.47;;;-8.53;72.75
70833;BME280;58452;59.418;17.962;2022-12-13T11:08:23;99982.91;;;-8.50;73.07
70833;BME280;58452;59.418;17.962;2022-12-13T11:10:59;99982.91;;;-8.50;72.53
70833;BME280;58452;59.418;17.962;2022-12-13T11:13:36;99978.91;;;-8.57;72.96
70833;BME280;58452;59.418;17.962;2022-12-13T11:16:04;99982.03;;;-8.49;73.68
70833;BME280;58452;59.418;17.962;2022-12-13T11:18:41;99992.13;;;-8.52;72.88
70833;BME280;58452;59.418;17.962;2022-12-13T11:21:08;99974.78;;;-8.58;73.13
70833;BME280;58452;59.418;17.962;2022-12-13T11:23:36;99980.66;;;-8.59;72.92
70833;BME280;58452;59.418;17.962;2022-12-13T11:26:15;99971.72;;;-8.68;73.29
70833;BME280;58452;59.418;17.962;2022-12-13T11:42:32;99980.41;;;-8.81;73.09
70833;BME280;58452;59.418;17.962;2022-12-13T11:50:17;99987.03;;;-8.80;72.66
70833;BME280;58452;59.418;17.962;2022-12-13T11:52:56;99988.84;;;-8.85;73.17
70833;BME280;58452;59.418;17.962;2022-12-13T11:55:32;99981.44;;;-8.89;72.35
70833;BME280;58452;59.418;17.962;2022-12-13T11:58:10;99992.28;;;-8.91;72.74
70833;BME280;58452;59.418;17.962;2022-12-13T12:00:53;99991.66;;;-8.99;72.14
70833;BME280;58452;59.418;17.962;2022-12-13T12:03:45;99991.06;;;-9.08;72.72
70833;BME280;58452;59.418;17.962;2022-12-13T12:06:28;99987.91;;;-9.15;72.11
70833;BME280;58452;59.418;17.962;2022-12-13T12:09:03;99998.41;;;-9.02;72.80
70833;BME280;58452;59.418;17.962;2022-12-13T12:11:46;99993.56;;;-9.08;72.10
70833;BME280;58452;59.418;17.962;2022-12-13T12:14:21;100001.97;;;-9.11;72.92
70833;BME280;58452;59.418;17.962;2022-12-13T12:16:51;100006.91;;;-9.09;72.51
70833;BME280;58452;59.418;17.962;2022-12-13T12:19:20;100002.09;;;-9.17;72.60
70833;BME280;58452;59.418;17.962;2022-12-13T12:22:08;100000.50;;;-9.18;72.23
70833;BME280;58452;59.418;17.962;2022-12-13T12:30:23;100000.69;;;-9.27;72.25
70833;BME280;58452;59.418;17.962;2022-12-13T12:46:49;99992.81;;;-9.46;72.25
70833;BME280;58452;59.418;17.962;2022-12-13T12:49:56;99999.44;;;-9.43;71.85
70833;BME280;58452;59.418;17.962;2022-12-13T12:55:10;100002.13;;;-9.52;72.45
70833;BME280;58452;59.418;17.962;2022-12-13T12:58:06;100001.34;;;-9.54;71.70
70833;BME280;58452;59.418;17.962;2022-12-13T13:00:50;100007.97;;;-9.53;72.24
70833;BME280;58452;59.418;17.962;2022-12-13T13:03:25;100004.88;;;-9.63;72.21
70833;BME280;58452;59.418;17.962;2022-12-13T13:08:28;100014.81;;;-9.61;72.15
70833;BME280;58452;59.418;17.962;2022-12-13T13:10:57;100014.69;;;-9.55;72.39
70833;BME280;58452;59.418;17.962;2022-12-13T13:14:03;100018.03;;;-9.56;71.43
70833;BME280;58452;59.418;17.962;2022-12-13T13:16:40;100022.47;;;-9.69;72.10
70833;BME280;58452;59.418;17.962;2022-12-13T13:21:57;100022.66;;;-9.76;72.68
70833;BME280;58452;59.418;17.962;2022-12-13T13:24:28;100020.25;;;-9.82;72.21
70833;BME280;58452;59.418;17.962;2022-12-13T13:34:38;100018.75;;;-9.90;72.10
70833;BME280;58452;59.418;17.962;2022-12-13T13:39:59;100015.59;;;-9.98;72.25
70833;BME280;58452;59.418;17.962;2022-12-13T13:42:29;100021.34;;;-9.94;72.44
70833;BME280;58452;59.418;17.962;2022-12-13T13:45:21;100022.22;;;-9.97;72.16
70833;BME280;58452;59.418;17.962;2022-12-13T13:56:43;100024.91;;;-10.06;72.76
70833;BME280;58452;59.418;17.962;2022-12-13T14:05:56;100030.88;;;-10.13;72.55
70833;BME280;58452;59.418;17.962;2022-12-13T14:30:29;100023.47;;;-10.14;72.81
70833;BME280;58452;59.418;17.962;2022-12-13T14:32:55;100024.19;;;-10.11;73.35
70833;BME280;58452;59.418;17.962;2022-12-13T14:35:29;100028.31;;;-10.10;73.84
70833;BME280;58452;59.418;17.962;2022-12-13T14:37:58;100026.59;;;-10.06;74.02
70833;BME280;58452;59.418;17.962;2022-12-13T14:40:46;100017.44;;;-10.06;74.02
70833;BME280;58452;59.418;17.962;2022-12-13T14:43:41;100036.56;;;-10.06;74.85
70833;BME280;58452;59.418;17.962;2022-12-13T14:46:07;100032.41;;;-10.06;74.63
70833;BME280;58452;59.418;17.962;2022-12-13T14:48:45;100024.97;;;-10.09;74.03
70833;BME280;58452;59.418;17.962;2022-12-13T14:51:32;100029.03;;;-10.05;74.53
70833;BME280;58452;59.418;17.962;2022-12-13T14:53:58;100025.78;;;-10.07;73.56
70833;BME280;58452;59.418;17.962;2022-12-13T14:56:27;100019.94;;;-10.07;74.59
70833;BME280;58452;59.418;17.962;2022-12-13T14:58:54;100023.34;;;-10.11;73.89
70833;BME280;58452;59.418;17.962;2022-12-13T15:01:30;100020.84;;;-10.10;74.51
70833;BME280;58452;59.418;17.962;2022-12-13T15:04:20;100025.84;;;-10.10;74.68